Time;durP1;ratioP1;P1;durP2;ratioP2;P2;SDS_P1;SDS_P2;PMS_P1;PMS_P2;Temp;Humidity;BMP_temperature;BMP_pressure;BME280_temperature;BME280_humidity;BME280_pressure;Samples;Min_cycle;Max_cycle;Signal;HPM_P1;HPM_P2
2021/06/05 00:01:59;;;;;;;19.40;11.75;;;;;;;17.10;68.44;101632.06;5032010;28;20026;-71
2021/06/05 00:04:25;;;;;;;17.00;11.57;;;;;;;17.12;68.42;101633.00;5032023;28;20025;-71
2021/06/05 00:06:51;;;;;;;18.98;12.27;;;;;;;17.15;68.20;101634.88;5031981;28;20167;-71
2021/06/05 00:09:18;;;;;;;15.75;11.52;;;;;;;17.20;67.81;101628.97;5032684;28;20029;-71
2021/06/05 00:11:44;;;;;;;21.15;12.05;;;;;;;17.18;67.99;101630.66;5041433;28;20032;-71
2021/06/05 00:14:11;;;;;;;17.70;12.00;;;;;;;16.89;69.46;101624.28;5051989;28;20378;-71
2021/06/05 00:16:46;;;;;;;20.23;12.52;;;;;;;16.90;69.21;101629.56;5051918;28;20044;-71
2021/06/05 00:19:13;;;;;;;13.10;11.63;;;;;;;17.03;68.65;101630.06;5042436;28;20394;-71
2021/06/05 00:21:39;;;;;;;15.07;11.65;;;;;;;16.98;68.95;101631.59;5031799;28;20032;-70
2021/06/05 00:24:06;;;;;;;16.63;12.00;;;;;;;16.71;69.90;101627.94;5031697;28;20508;-70
2021/06/05 00:26:32;;;;;;;16.15;12.25;;;;;;;16.75;69.83;101623.75;5033215;28;20104;-70
2021/06/05 00:28:57;;;;;;;18.40;12.35;;;;;;;16.83;69.73;101624.94;5033931;28;20171;-71
2021/06/05 00:31:23;;;;;;;16.00;12.90;;;;;;;16.77;69.72;101622.09;5032662;28;20034;-70
2021/06/05 00:33:49;;;;;;;19.63;12.60;;;;;;;16.87;69.12;101626.84;5031768;28;20029;-70
2021/06/05 00:36:14;;;;;;;15.82;11.68;;;;;;;16.97;68.67;101635.94;5033200;28;20029;-70
2021/06/05 00:38:40;;;;;;;20.85;12.60;;;;;;;16.92;69.07;101627.91;5015466;28;20032;-70
2021/06/05 00:41:08;;;;;;;20.17;13.68;;;;;;;16.96;69.03;101628.03;5051601;28;20346;-70
2021/06/05 00:43:43;;;;;;;16.63;12.77;;;;;;;16.88;69.29;101620.81;5040428;28;20032;-71
2021/06/05 00:46:29;;;;;;;16.95;12.60;;;;;;;16.85;69.42;101619.78;5035052;28;20020;-70
2021/06/05 00:48:55;;;;;;;18.30;12.38;;;;;;;16.72;70.05;101618.44;5031134;28;20025;-70
2021/06/05 00:51:37;;;;;;;20.38;13.10;;;;;;;16.87;69.25;101619.03;5032710;28;20082;-71
2021/06/05 00:54:03;;;;;;;19.40;13.07;;;;;;;16.89;69.28;101625.19;5031357;28;20021;-70
2021/06/05 00:56:29;;;;;;;18.05;13.10;;;;;;;16.61;70.32;101621.50;5031308;28;20025;-70
2021/06/05 00:58:54;;;;;;;18.25;13.30;;;;;;;16.86;69.27;101622.47;5031350;28;20056;-70
2021/06/05 01:01:24;;;;;;;21.83;12.77;;;;;;;16.93;69.15;101614.06;5031591;28;20044;-70
2021/06/05 01:03:50;;;;;;;18.40;13.45;;;;;;;16.93;68.82;101614.06;5014917;28;20398;-70
2021/06/05 01:06:17;;;;;;;18.23;13.45;;;;;;;16.88;69.13;101607.78;5033964;28;20061;-70
2021/06/05 01:08:52;;;;;;;17.27;13.10;;;;;;;16.86;69.28;101606.84;5052339;28;20065;-70
2021/06/05 01:11:25;;;;;;;16.35;12.57;;;;;;;16.83;69.24;101609.34;5052308;28;20031;-70
2021/06/05 01:13:57;;;;;;;18.38;13.80;;;;;;;16.81;69.51;101613.59;5015689;28;20359;-70
2021/06/05 01:16:24;;;;;;;18.13;13.23;;;;;;;16.77;69.42;101617.78;5049730;28;20123;-70
2021/06/05 01:18:54;;;;;;;23.58;14.05;;;;;;;16.79;69.27;101625.66;5050944;28;20474;-70
2021/06/05 01:21:51;;;;;;;18.13;13.65;;;;;;;16.78;69.30;101623.88;5050806;28;20098;-70
2021/06/05 01:24:44;;;;;;;15.88;12.95;;;;;;;16.69;69.70;101628.72;5050782;28;20506;-70
2021/06/05 01:27:14;;;;;;;20.05;13.57;;;;;;;16.62;70.01;101628.47;5040814;28;20541;-70
2021/06/05 01:29:43;;;;;;;22.77;14.88;;;;;;;16.61;70.19;101631.00;5030987;28;20364;-70
2021/06/05 01:32:12;;;;;;;22.33;13.65;;;;;;;16.55;70.34;101626.44;5031075;28;20057;-71
2021/06/05 01:34:57;;;;;;;;;;;;;;;16.50;70.60;101622.78;5032687;28;20542;-70
2021/06/05 01:37:22;;;;;;;22.10;14.68;;;;;;;16.16;72.00;101626.56;5042279;28;20389;-70
2021/06/05 01:39:49;;;;;;;18.33;13.80;;;;;;;16.40;71.13;101623.19;5050566;28;20109;-70
2021/06/05 01:42:19;;;;;;;15.88;12.68;;;;;;;16.36;71.23;101620.47;5052298;28;20549;-70
2021/06/05 01:44:46;;;;;;;;;;;;;;;16.30;71.43;101622.81;5055379;28;20032;-71
2021/06/05 01:47:12;;;;;;;16.10;13.60;;;;;;;16.35;71.39;101623.91;5050597;28;19917;-71
2021/06/05 01:49:38;;;;;;;19.52;13.50;;;;;;;16.23;71.85;101620.78;5034874;28;20132;-70
2021/06/05 01:52:11;;;;;;;19.90;13.85;;;;;;;16.10;72.42;101628.91;5033763;28;20470;-71
2021/06/05 01:54:48;;;;;;;17.42;13.23;;;;;;;16.15;72.04;101627.38;5035040;28;20025;-70
2021/06/05 01:57:17;;;;;;;28.63;15.40;;;;;;;16.03;72.57;101631.25;5035896;28;20021;-70
2021/06/05 01:59:44;;;;;;;18.88;14.73;;;;;;;16.25;71.55;101632.16;5034712;28;20055;-70
2021/06/05 02:02:10;;;;;;;25.45;14.02;;;;;;;16.28;71.62;101632.28;5052336;28;20481;-71
2021/06/05 02:04:36;;;;;;;19.90;14.20;;;;;;;16.32;71.13;101622.91;5054466;28;20029;-70
2021/06/05 02:07:04;;;;;;;26.80;14.70;;;;;;;15.72;73.89;101624.69;5055772;28;20021;-70
2021/06/05 02:09:30;;;;;;;17.25;14.10;;;;;;;16.03;72.43;101628.66;5053659;28;20508;-70
2021/06/05 02:12:01;;;;;;;19.75;14.05;;;;;;;15.98;72.88;101632.75;5054761;28;20029;-70
2021/06/05 02:14:50;;;;;;;21.83;14.77;;;;;;;16.16;71.92;101631.75;5054409;28;20025;-70
2021/06/05 02:17:15;;;;;;;21.77;14.33;;;;;;;15.98;72.66;101632.75;5055401;28;20021;-70
2021/06/05 02:19:45;;;;;;;19.73;14.73;;;;;;;16.11;71.98;101633.28;5034501;28;20282;-70
2021/06/05 02:22:14;;;;;;;24.38;14.32;;;;;;;16.24;71.27;101630.38;5033987;28;20028;-71
2021/06/05 02:24:49;;;;;;;19.98;15.23;;;;;;;16.15;71.57;101635.19;5034190;28;20100;-70
2021/06/05 02:27:21;;;;;;;17.83;13.43;;;;;;;16.23;71.36;101633.78;5036975;28;20053;-70
2021/06/05 02:29:47;;;;;;;22.42;14.63;;;;;;;16.11;71.47;101628.09;5045467;28;20040;-70
2021/06/05 02:32:16;;;;;;;19.10;15.07;;;;;;;15.93;72.79;101626.47;5042726;28;20535;-70
2021/06/05 02:34:43;;;;;;;20.92;14.98;;;;;;;16.03;72.42;101636.44;5034454;28;20059;-69
2021/06/05 02:37:13;;;;;;;18.90;14.45;;;;;;;16.05;72.51;101629.59;5045164;28;20119;-69
2021/06/05 02:39:40;;;;;;;18.92;13.75;;;;;;;15.96;72.96;101621.41;5051488;28;20030;-69
2021/06/05 02:42:18;;;;;;;20.65;13.40;;;;;;;16.12;72.35;101619.47;5042546;28;20021;-69
2021/06/05 02:44:46;;;;;;;18.13;13.00;;;;;;;16.01;72.52;101622.50;5042264;28;20021;-68
2021/06/05 02:47:14;;;;;;;23.35;13.52;;;;;;;16.08;72.58;101625.34;5044434;28;20387;-70
2021/06/05 02:49:40;;;;;;;17.80;12.50;;;;;;;16.17;71.74;101628.34;5043597;28;20100;-69
2021/06/05 02:52:28;;;;;;;16.45;12.65;;;;;;;16.31;71.38;101622.00;5042531;28;20500;-69
2021/06/05 02:54:58;;;;;;;21.27;13.55;;;;;;;16.22;71.37;101616.44;5029376;28;20021;-69
2021/06/05 02:57:23;;;;;;;;;;;;;;;16.26;71.65;101628.72;5044849;28;20025;-68
2021/06/05 02:59:49;;;;;;;17.50;12.90;;;;;;;16.40;71.27;101621.50;5042942;28;19920;-69
2021/06/05 03:02:14;;;;;;;24.75;14.27;;;;;;;16.18;72.05;101618.03;5044283;28;20545;-69
2021/06/05 03:04:39;;;;;;;20.73;14.40;;;;;;;15.99;72.30;101633.66;5043206;28;20025;-69
2021/06/05 03:07:05;;;;;;;19.58;14.80;;;;;;;16.21;71.70;101640.63;5043347;28;20580;-69
2021/06/05 03:09:31;;;;;;;18.20;13.93;;;;;;;16.38;71.21;101632.66;5043085;28;20016;-69
2021/06/05 03:11:56;;;;;;;18.10;13.82;;;;;;;16.01;72.34;101632.03;5043597;28;20045;-69
2021/06/05 03:14:22;;;;;;;23.40;15.30;;;;;;;16.05;72.30;101634.81;5042498;28;20083;-69
2021/06/05 03:16:47;;;;;;;20.15;14.13;;;;;;;16.20;71.63;101633.66;5043054;28;20029;-69
2021/06/05 03:19:13;;;;;;;20.80;14.05;;;;;;;16.26;71.67;101628.72;5041879;28;20029;-68
2021/06/05 03:21:38;;;;;;;19.30;13.55;;;;;;;16.45;71.15;101630.38;5044158;28;20036;-69
2021/06/05 03:24:05;;;;;;;18.95;14.40;;;;;;;16.24;71.68;101640.78;5043250;28;20034;-69
2021/06/05 03:26:30;;;;;;;19.33;15.65;;;;;;;15.81;73.17;101633.72;5041883;28;20029;-68
2021/06/05 03:28:56;;;;;;;20.60;14.07;;;;;;;16.14;71.83;101628.22;5043039;28;20021;-69
2021/06/05 03:31:21;;;;;;;18.95;13.77;;;;;;;16.15;72.06;101628.28;5042777;28;20026;-68
2021/06/05 03:33:50;;;;;;;22.02;14.55;;;;;;;15.89;73.23;101638.44;5041618;28;20071;-68
2021/06/05 03:36:18;;;;;;;21.02;14.63;;;;;;;15.68;73.89;101633.19;5042042;28;20049;-69
2021/06/05 03:38:44;;;;;;;20.55;14.65;;;;;;;15.70;73.68;101626.34;5041659;28;20032;-68
2021/06/05 03:41:12;;;;;;;19.60;14.80;;;;;;;15.62;74.03;101625.13;5044546;28;20012;-69
2021/06/05 03:43:38;;;;;;;18.15;14.23;;;;;;;15.94;72.97;101615.25;5043246;28;20031;-68
2021/06/05 03:46:03;;;;;;;19.88;13.73;;;;;;;16.11;72.09;101620.28;5040889;28;20025;-68
2021/06/05 03:48:29;;;;;;;17.80;13.77;;;;;;;16.32;71.34;101622.91;5043097;28;20078;-68
2021/06/05 03:50:55;;;;;;;19.17;13.82;;;;;;;16.30;70.96;101619.34;5042763;28;20071;-69
2021/06/05 03:53:24;;;;;;;20.23;14.52;;;;;;;16.27;70.90;101614.91;5043111;28;20078;-69
2021/06/05 03:55:50;;;;;;;20.10;13.18;;;;;;;16.33;70.94;101615.16;5039214;28;20037;-69
2021/06/05 03:58:23;;;;;;;17.05;12.55;;;;;;;16.45;70.29;101613.91;5032469;28;20033;-69
2021/06/05 04:00:48;;;;;;;16.88;13.43;;;;;;;16.24;71.13;101612.19;5032510;28;20039;-68
2021/06/05 04:03:14;;;;;;;17.13;13.10;;;;;;;16.33;70.75;101609.94;5032597;28;20083;-68
2021/06/05 04:05:40;;;;;;;17.92;12.60;;;;;;;16.28;71.01;101611.47;5037677;28;20095;-69
2021/06/05 04:08:07;;;;;;;16.23;13.20;;;;;;;16.24;71.24;101609.56;5051991;28;20391;-69
2021/06/05 04:10:33;;;;;;;15.57;11.82;;;;;;;16.44;70.38;101612.13;5052363;28;20028;-69
2021/06/05 04:12:59;;;;;;;20.15;12.60;;;;;;;16.31;70.91;101611.59;5052257;28;20024;-69
2021/06/05 04:15:26;;;;;;;15.40;12.20;;;;;;;16.35;70.60;101616.09;5050455;28;20520;-69
2021/06/05 04:18:07;;;;;;;18.27;11.75;;;;;;;16.35;70.41;101616.09;5033536;28;20443;-69
2021/06/05 04:20:34;;;;;;;16.25;12.63;;;;;;;16.49;70.13;101610.59;5032145;28;20107;-69
2021/06/05 04:23:00;;;;;;;15.30;12.73;;;;;;;16.30;70.72;101615.03;5031963;28;20051;-69
2021/06/05 04:25:26;;;;;;;17.92;12.68;;;;;;;16.39;70.66;101613.63;5049293;28;20124;-69
2021/06/05 04:27:52;;;;;;;13.60;11.23;;;;;;;16.34;70.68;101616.94;5053071;28;20059;-69
2021/06/05 04:30:21;;;;;;;14.40;11.20;;;;;;;16.53;69.60;101622.91;5052207;28;20036;-69
2021/06/05 04:32:46;;;;;;;14.18;10.90;;;;;;;16.27;70.88;101627.91;5051884;28;20028;-69
2021/06/05 04:35:12;;;;;;;16.58;11.32;;;;;;;16.45;69.82;101619.09;5033465;28;20116;-69
2021/06/05 04:37:37;;;;;;;14.25;11.38;;;;;;;16.01;71.48;101619.91;5038016;28;20056;-69
2021/06/05 04:40:05;;;;;;;15.18;10.85;;;;;;;16.19;71.09;101614.59;5051883;28;20527;-69
2021/06/05 04:42:31;;;;;;;14.88;11.07;;;;;;;16.02;71.49;101619.06;5047201;28;20094;-69
2021/06/05 04:44:57;;;;;;;16.55;11.25;;;;;;;15.83;72.04;101616.47;5031947;28;20484;-69
2021/06/05 04:47:22;;;;;;;14.73;11.05;;;;;;;16.11;71.51;101618.59;5031909;28;20578;-69
2021/06/05 04:49:47;;;;;;;15.20;11.15;;;;;;;16.00;71.92;101625.91;5031758;28;20059;-69
2021/06/05 04:52:13;;;;;;;16.42;11.50;;;;;;;15.71;72.73;101628.13;5032436;28;20033;-69
2021/06/05 04:54:38;;;;;;;14.77;10.18;;;;;;;16.14;71.31;101628.22;5052022;28;20017;-69
2021/06/05 04:57:04;;;;;;;15.00;11.23;;;;;;;15.89;71.70;101621.97;5049964;28;20023;-69
2021/06/05 04:59:30;;;;;;;18.25;11.23;;;;;;;16.22;71.06;101616.44;5049856;28;20356;-69
2021/06/05 05:01:56;;;;;;;15.40;11.43;;;;;;;16.12;70.92;101624.66;5049967;28;20024;-69
2021/06/05 05:04:22;;;;;;;15.30;10.35;;;;;;;16.18;70.90;101620.63;5031058;28;20033;-69
2021/06/05 05:06:48;;;;;;;19.35;10.77;;;;;;;16.29;71.01;101617.59;5031161;28;20036;-70
2021/06/05 05:09:15;;;;;;;17.88;10.48;;;;;;;16.08;71.77;101617.56;5031047;28;20459;-70
2021/06/05 05:11:42;;;;;;;11.68;9.63;;;;;;;16.41;70.63;101624.97;5013462;28;20022;-70
2021/06/05 05:14:09;;;;;;;14.05;9.90;;;;;;;16.74;69.30;101627.19;5046001;28;20041;-70
2021/06/05 05:16:34;;;;;;;13.55;11.20;;;;;;;16.40;69.93;101623.19;5050509;28;20025;-70
2021/06/05 05:19:00;;;;;;;17.23;10.63;;;;;;;16.50;70.31;101617.59;5053897;28;20032;-69
2021/06/05 05:21:27;;;;;;;17.90;10.48;;;;;;;16.86;68.50;101622.47;5037461;28;20031;-69
2021/06/05 05:23:53;;;;;;;11.07;8.52;;;;;;;17.10;67.42;101626.88;5039515;28;20056;-69
2021/06/05 05:26:20;;;;;;;16.30;9.77;;;;;;;16.78;68.16;101629.06;5034104;28;20029;-69
2021/06/05 05:28:45;;;;;;;13.00;10.05;;;;;;;16.64;69.23;101626.81;5033927;28;20025;-70
2021/06/05 05:31:16;;;;;;;14.63;9.75;;;;;;;16.56;69.50;101628.22;5017450;28;20540;-69
2021/06/05 05:33:42;;;;;;;13.90;9.95;;;;;;;16.93;68.08;101629.69;5047378;28;20028;-70
2021/06/05 05:36:12;;;;;;;14.45;9.45;;;;;;;16.99;67.67;101623.88;5046397;28;20017;-70
2021/06/05 05:38:38;;;;;;;11.27;8.85;;;;;;;16.89;67.67;101625.19;5045412;28;20025;-70
2021/06/05 05:41:09;;;;;;;11.55;8.95;;;;;;;17.04;68.24;101616.22;5043406;28;20022;-71
2021/06/05 05:43:34;;;;;;;14.07;9.93;;;;;;;16.71;69.70;101627.06;5043497;28;20029;-71
2021/06/05 05:46:00;;;;;;;15.52;9.65;;;;;;;16.80;69.13;101627.44;5046596;28;20071;-71
2021/06/05 05:48:26;;;;;;;15.10;9.05;;;;;;;17.00;68.45;101625.66;5038675;28;20033;-71
2021/06/05 05:50:51;;;;;;;12.65;9.52;;;;;;;17.11;68.25;101632.97;5024567;28;20025;-71
2021/06/05 05:53:18;;;;;;;12.05;9.57;;;;;;;17.06;68.54;101630.19;5045109;28;20036;-71
2021/06/05 05:55:44;;;;;;;13.27;9.10;;;;;;;17.34;67.99;101631.22;5043885;28;20029;-71
2021/06/05 05:58:13;;;;;;;15.10;9.20;;;;;;;17.23;67.32;101634.31;5045271;28;20024;-70
2021/06/05 06:00:41;;;;;;;11.50;8.20;;;;;;;17.69;67.25;101635.94;5044308;28;20164;-71
2021/06/05 06:03:07;;;;;;;16.50;9.00;;;;;;;17.81;66.33;101637.28;5044687;28;20108;-70
2021/06/05 06:05:34;;;;;;;13.65;8.80;;;;;;;17.69;66.73;101644.66;5042513;28;20061;-70
2021/06/05 06:08:00;;;;;;;11.25;8.15;;;;;;;17.70;64.69;101641.22;5044106;28;20074;-70
2021/06/05 06:10:27;;;;;;;10.18;8.07;;;;;;;17.88;66.03;101635.75;5033410;28;20489;-71
2021/06/05 06:12:53;;;;;;;11.02;8.27;;;;;;;18.17;64.04;101637.63;5044240;28;20509;-71
2021/06/05 06:15:24;;;;;;;13.27;8.38;;;;;;;18.16;64.16;101635.84;5045208;28;20083;-71
2021/06/05 06:17:50;;;;;;;10.75;7.32;;;;;;;18.25;63.61;101630.94;5044361;28;20024;-71
2021/06/05 06:20:32;;;;;;;12.07;8.23;;;;;;;18.32;63.30;101627.72;5043622;28;20029;-71
2021/06/05 06:22:58;;;;;;;15.05;7.97;;;;;;;18.34;63.25;101631.25;5043336;28;20119;-71
2021/06/05 06:25:27;;;;;;;12.18;8.13;;;;;;;18.59;64.02;101626.88;5045032;28;20029;-70
2021/06/05 06:27:53;;;;;;;10.52;7.93;;;;;;;18.67;62.20;101628.00;5042455;28;20049;-70
2021/06/05 06:30:28;;;;;;;9.23;7.03;;;;;;;18.93;62.05;101627.91;5028628;28;20028;-70
2021/06/05 06:32:54;;;;;;;13.82;7.07;;;;;;;19.09;61.56;101628.41;5043450;28;20508;-70
2021/06/05 06:35:21;;;;;;;10.27;6.80;;;;;;;19.26;60.81;101621.06;5032723;28;20104;-70
2021/06/05 06:37:47;;;;;;;9.30;6.90;;;;;;;19.27;60.08;101622.84;5044414;28;20029;-70
2021/06/05 06:40:13;;;;;;;10.13;6.82;;;;;;;19.49;59.54;101624.31;5045871;28;20040;-71
2021/06/05 06:42:39;;;;;;;9.25;6.35;;;;;;;19.58;60.17;101633.25;5044584;28;20033;-71
2021/06/05 06:45:05;;;;;;;10.57;7.25;;;;;;;19.39;59.99;101633.63;5044614;28;20150;-71
2021/06/05 06:47:30;;;;;;;7.90;6.32;;;;;;;19.80;60.41;101619.94;5035481;28;20096;-71
2021/06/05 06:49:56;;;;;;;12.15;6.50;;;;;;;19.90;59.51;101620.22;5043698;28;20496;-71
2021/06/05 06:52:25;;;;;;;10.45;6.07;;;;;;;20.22;58.40;101620.16;5045012;28;20036;-71
2021/06/05 06:54:52;;;;;;;9.73;5.90;;;;;;;20.36;59.72;101621.38;5045508;28;20029;-71
2021/06/05 06:57:18;;;;;;;6.65;5.53;;;;;;;20.55;59.60;101621.81;5043601;28;20355;-71
2021/06/05 06:59:43;;;;;;;9.60;5.97;;;;;;;20.79;57.41;101620.66;5044388;28;20025;-71
2021/06/05 07:02:10;;;;;;;9.20;6.13;;;;;;;21.08;56.72;101620.41;5042333;28;20373;-71
2021/06/05 07:04:36;;;;;;;11.43;5.50;;;;;;;21.22;56.08;101620.72;5045885;28;20033;-71
2021/06/05 07:07:02;;;;;;;8.75;5.57;;;;;;;21.44;55.49;101622.00;5045824;28;20045;-70
2021/06/05 07:09:29;;;;;;;9.13;4.82;;;;;;;21.52;55.33;101620.44;5047545;28;20052;-71
2021/06/05 07:11:54;;;;;;;6.75;5.85;;;;;;;21.20;53.68;101618.06;5042269;28;20021;-71
2021/06/05 07:14:20;;;;;;;8.27;4.68;;;;;;;21.59;53.46;101621.44;5044017;28;20060;-70
2021/06/05 07:16:45;;;;;;;8.00;4.80;;;;;;;21.76;54.48;101613.94;5043530;28;20029;-71
2021/06/05 07:19:11;;;;;;;9.35;5.05;;;;;;;21.98;53.08;101615.19;5044897;28;20024;-71
2021/06/05 07:21:36;;;;;;;11.85;4.70;;;;;;;22.02;52.29;101610.91;5042539;28;20018;-71
2021/06/05 07:24:04;;;;;;;11.52;4.95;;;;;;;22.29;51.80;101609.56;5042285;28;20516;-71
2021/06/05 07:26:30;;;;;;;10.30;5.00;;;;;;;22.10;51.74;101605.75;5032646;28;20479;-83
2021/06/05 07:28:59;;;;;;;7.43;5.38;;;;;;;22.01;53.44;101609.13;5034296;28;20033;-81
2021/06/05 07:31:29;;;;;;;9.50;5.47;;;;;;;22.08;52.00;101610.09;5034465;28;20463;-85
2021/06/05 07:33:56;;;;;;;8.45;4.80;;;;;;;21.96;52.00;101616.03;5016835;28;20079;-83
2021/06/05 07:36:29;;;;;;;9.18;4.53;;;;;;;21.83;51.36;101610.56;5032986;28;20021;-71
2021/06/05 07:38:54;;;;;;;5.95;4.30;;;;;;;21.91;52.18;101607.19;5032330;28;20027;-71
2021/06/05 07:41:20;;;;;;;5.97;4.38;;;;;;;22.34;52.07;101607.91;5039047;28;20043;-71
2021/06/05 07:43:46;;;;;;;5.78;4.20;;;;;;;22.75;50.84;101610.28;5044297;28;20037;-71
2021/06/05 07:46:12;;;;;;;259.05;44.47;;;;;;;22.67;49.29;101606.69;5032727;28;20033;-71
2021/06/05 07:48:37;;;;;;;65.10;11.75;;;;;;;22.82;49.79;101605.16;5032573;28;20026;-71
2021/06/05 07:51:05;;;;;;;12.77;4.15;;;;;;;23.12;49.80;101609.03;5032286;28;20033;-71
2021/06/05 07:53:30;;;;;;;14.73;4.85;;;;;;;23.26;49.53;101602.22;5031235;28;20025;-71
2021/06/05 07:55:56;;;;;;;9.40;5.25;;;;;;;23.40;47.99;101596.25;5031173;28;20044;-71
2021/06/05 07:58:21;;;;;;;7.07;4.30;;;;;;;23.74;48.04;101599.22;5032471;28;20060;-71
2021/06/05 08:00:47;;;;;;;6.40;3.83;;;;;;;24.03;48.57;101596.03;5042212;28;20033;-72
2021/06/05 08:03:13;;;;;;;8.90;4.72;;;;;;;23.61;47.17;101603.50;5053070;28;20106;-71
2021/06/05 08:05:39;;;;;;;6.13;4.20;;;;;;;23.34;47.63;101590.06;5052197;28;20040;-71
2021/06/05 08:08:06;;;;;;;8.05;3.85;;;;;;;23.22;47.52;101600.41;5049642;28;20055;-71
2021/06/05 08:10:32;;;;;;;6.45;4.35;;;;;;;23.59;47.63;101598.22;5051937;28;20059;-71
2021/06/05 08:12:58;;;;;;;8.45;4.72;;;;;;;24.04;47.14;101592.53;5051911;28;20044;-71
2021/06/05 08:15:29;;;;;;;7.53;4.25;;;;;;;23.92;47.63;101588.91;5052235;28;20036;-71
2021/06/05 08:17:55;;;;;;;4.55;3.75;;;;;;;24.40;45.96;101591.03;5047309;28;20017;-72
2021/06/05 08:20:26;;;;;;;8.55;4.40;;;;;;;24.38;45.66;101597.16;5032237;28;20502;-71
2021/06/05 08:22:51;;;;;;;9.85;4.40;;;;;;;24.63;46.12;101592.94;5034960;28;20045;-71
2021/06/05 08:25:16;;;;;;;8.07;3.90;;;;;;;24.74;45.34;101596.53;5048507;28;20029;-71
2021/06/05 08:27:43;;;;;;;8.02;4.07;;;;;;;25.05;45.83;101596.72;5043929;28;20017;-71
2021/06/05 08:30:15;;;;;;;5.68;4.18;;;;;;;24.44;43.90;101582.28;5051828;28;20048;-71
2021/06/05 08:32:40;;;;;;;6.10;4.47;;;;;;;24.40;44.68;101596.31;5060498;28;20035;-72
2021/06/05 08:35:07;;;;;;;5.50;3.90;;;;;;;24.79;43.54;101594.81;5034730;28;20026;-71
2021/06/05 08:37:35;;;;;;;4.05;3.20;;;;;;;25.14;43.13;101600.25;5042144;28;20017;-72
2021/06/05 08:40:03;;;;;;;5.25;3.90;;;;;;;25.11;43.17;101600.25;5050160;28;20052;-71
2021/06/05 08:42:37;;;;;;;6.95;3.13;;;;;;;25.01;43.51;101594.94;5051515;28;20033;-72
2021/06/05 08:45:05;;;;;;;4.82;3.80;;;;;;;25.45;43.65;101590.72;5048579;28;20080;-71
2021/06/05 08:47:33;;;;;;;11.32;4.18;;;;;;;25.77;43.52;101586.34;5036777;28;20036;-78
2021/06/05 08:50:08;;;;;;;6.13;3.50;;;;;;;25.26;41.74;101595.03;5031547;28;20044;-75
2021/06/05 08:52:52;;;;;;;6.88;3.30;;;;;;;25.62;42.58;101585.47;5033429;28;20025;-85
2021/06/05 08:55:40;;;;;;;4.63;3.03;;;;;;;24.93;41.73;101586.97;5041239;28;20017;-76
2021/06/05 08:58:12;;;;;;;4.50;3.30;;;;;;;25.34;40.21;101588.00;5038346;28;20025;-88
2021/06/05 09:00:46;;;;;;;7.55;3.55;;;;;;;24.98;40.48;101589.66;5033673;28;20029;-78
2021/06/05 09:03:19;;;;;;;5.22;2.92;;;;;;;25.63;40.45;101579.31;5041139;28;20017;-90
2021/06/05 09:05:55;;;;;;;10.07;3.28;;;;;;;26.20;40.69;101581.13;5039378;28;20021;-79
2021/06/05 09:08:22;;;;;;;8.35;3.30;;;;;;;26.79;38.98;101591.53;5038305;28;20153;-84
2021/06/05 09:10:49;;;;;;;3.85;3.00;;;;;;;26.63;38.48;101584.56;5022705;28;20017;-83
2021/06/05 09:13:15;;;;;;;10.57;2.95;;;;;;;27.37;37.53;101584.28;5021976;28;20087;-74
2021/06/05 09:15:41;;;;;;;10.98;3.50;;;;;;;26.89;38.04;101591.53;5034620;28;20029;-72
2021/06/05 09:18:10;;;;;;;10.20;3.00;;;;;;;25.66;38.36;101589.84;5040603;28;20494;-72
2021/06/05 09:20:38;;;;;;;;;;;;;;;25.86;38.40;101580.22;5045185;28;20025;-74
2021/06/05 09:23:32;;;;;;;9.23;3.00;;;;;;;26.29;39.05;101579.34;5042184;28;19927;-72
2021/06/05 09:26:16;;;;;;;6.03;3.05;;;;;;;27.69;38.72;101580.56;5040450;28;20033;-73
2021/06/05 09:28:41;;;;;;;8.63;3.05;;;;;;;28.43;34.35;101579.03;5041234;28;20036;-72
2021/06/05 09:31:22;;;;;;;17.67;3.30;;;;;;;29.94;34.47;101579.69;5026562;28;20021;-75
2021/06/05 09:33:48;;;;;;;5.60;2.80;;;;;;;31.22;30.85;101587.91;5044325;28;20025;-78
2021/06/05 09:36:29;;;;;;;6.65;2.72;;;;;;;31.14;29.36;101583.63;5048999;28;20159;-75
2021/06/05 09:39:06;;;;;;;7.63;2.65;;;;;;;31.39;30.36;101580.44;5045861;28;20035;-75
2021/06/05 09:41:35;;;;;;;8.23;2.80;;;;;;;29.58;30.83;101571.44;5049459;28;20048;-76
2021/06/05 09:44:21;;;;;;;10.00;3.17;;;;;;;31.61;28.61;101579.94;5050587;28;20025;-77
2021/06/05 09:46:56;;;;;;;5.72;2.58;;;;;;;31.11;29.43;101575.69;5038723;28;20029;-76
2021/06/05 09:49:50;;;;;;;9.90;2.63;;;;;;;31.96;27.39;101569.34;5045221;28;20045;-82
2021/06/05 09:52:30;;;;;;;6.38;2.60;;;;;;;30.50;30.58;101584.03;5036681;28;20041;-77
2021/06/05 09:54:59;;;;;;;10.55;2.58;;;;;;;29.28;31.47;101579.78;5038400;28;20490;-75
2021/06/05 09:57:27;;;;;;;;;;;;;;;29.42;30.30;101582.28;5040717;28;20028;-75
2021/06/05 10:00:00;;;;;;;9.48;3.20;;;;;;;30.45;28.45;101575.28;5045267;28;19909;-85
2021/06/05 10:05:49;;;;;;;8.50;2.80;;;;;;;29.66;30.04;101574.84;5046528;28;20052;-82
2021/06/05 10:08:40;;;;;;;7.25;2.83;;;;;;;32.57;27.65;101577.47;5041740;28;20078;-71
2021/06/05 11:54:36;;;;;;;17.50;3.85;;;;;;;26.96;35.11;101499.00;5104451;27;20356;-70
2021/06/05 11:57:26;;;;;;;83.60;7.30;;;;;;;27.54;35.51;101496.00;5086197;28;20032;-68
2021/06/05 11:59:56;;;;;;;8.93;3.15;;;;;;;27.59;35.79;101502.13;5084853;28;20043;-67
2021/06/05 12:02:26;;;;;;;8.55;3.10;;;;;;;27.25;35.39;101489.16;5087426;28;20020;-70
2021/06/05 12:05:11;;;;;;;9.07;3.35;;;;;;;28.55;34.37;101498.53;5084791;28;20416;-69
2021/06/05 12:07:43;;;;;;;5.65;3.28;;;;;;;28.86;32.91;101498.16;5086025;28;20044;-69
2021/06/05 12:10:11;;;;;;;17.60;7.18;;;;;;;29.24;32.71;101498.50;5080890;28;20116;-71
2021/06/05 12:12:45;;;;;;;12.65;5.10;;;;;;;28.03;34.10;101502.63;5082894;28;20381;-70
2021/06/05 12:15:36;;;;;;;10.65;4.57;;;;;;;27.91;34.92;101492.16;5082950;28;20033;-69
2021/06/05 12:18:18;;;;;;;14.48;5.85;;;;;;;27.87;35.71;101496.59;5085593;28;20026;-70
2021/06/05 12:20:58;;;;;;;17.65;7.95;;;;;;;28.44;33.45;101489.84;5060574;28;20146;-71
2021/06/05 12:23:39;;;;;;;6.57;3.53;;;;;;;27.66;33.84;101490.59;5085180;28;20500;-71
2021/06/05 12:26:20;;;;;;;7.07;3.50;;;;;;;27.49;33.45;101488.09;5084218;28;20055;-70
2021/06/05 12:29:13;;;;;;;5.18;2.92;;;;;;;27.72;33.58;101491.44;5083131;28;20057;-70
2021/06/05 12:31:41;;;;;;;6.75;2.80;;;;;;;26.46;35.74;101482.47;5081912;28;20070;-70
2021/06/05 12:34:10;;;;;;;4.60;2.75;;;;;;;26.71;36.01;101482.34;5084354;28;20070;-71
2021/06/05 12:36:44;;;;;;;6.72;3.30;;;;;;;27.21;35.31;101476.84;5086495;28;20020;-71
2021/06/05 12:39:23;;;;;;;12.38;5.43;;;;;;;28.13;34.25;101475.19;5076480;28;20033;-71
2021/06/05 12:41:50;;;;;;;3.40;2.50;;;;;;;27.52;34.35;101476.63;5086348;28;20116;-71
2021/06/05 12:44:22;;;;;;;15.77;6.00;;;;;;;28.13;35.18;101469.00;5068526;28;20028;-71
2021/06/05 12:46:47;;;;;;;4.13;2.33;;;;;;;27.87;34.85;101467.47;5080198;28;20020;-70
2021/06/05 12:49:18;;;;;;;3.33;1.98;;;;;;;27.37;33.44;101462.59;5085731;28;20020;-71
2021/06/05 12:51:47;;;;;;;4.15;3.00;;;;;;;27.48;34.64;101459.00;5086101;28;20051;-71
2021/06/05 12:54:30;;;;;;;3.95;2.72;;;;;;;28.33;33.02;101465.28;5071375;28;20036;-71
2021/06/05 12:56:58;;;;;;;3.08;2.33;;;;;;;27.44;35.11;101457.25;5079211;28;20028;-72
2021/06/05 12:59:36;;;;;;;6.72;2.50;;;;;;;27.10;35.15;101448.72;5084294;28;20536;-70
2021/06/05 13:02:26;;;;;;;3.33;2.20;;;;;;;27.87;35.36;101450.72;5081061;28;20034;-70
2021/06/05 13:04:52;;;;;;;4.50;2.17;;;;;;;27.44;35.24;101451.97;5074753;28;20101;-71
2021/06/05 13:07:33;;;;;;;4.90;2.28;;;;;;;27.36;32.88;101444.97;5074001;28;20040;-71
2021/06/05 13:10:26;;;;;;;3.67;2.63;;;;;;;27.25;35.18;101446.84;5073021;28;20111;-70
2021/06/05 13:13:09;;;;;;;7.88;3.75;;;;;;;27.42;39.13;101444.94;5071070;28;20028;-72
2021/06/05 13:15:44;;;;;;;5.40;3.60;;;;;;;27.34;40.82;101449.41;5074793;28;20036;-71